Time;durP1;ratioP1;P1;durP2;ratioP2;P2;SDS_P1;SDS_P2;PMS_P1;PMS_P2;Temp;Humidity;BMP_temperature;BMP_pressure;BME280_temperature;BME280_humidity;BME280_pressure;Samples;Min_cycle;Max_cycle;Signal;HPM_P1;HPM_P2
2023/04/11 00:00:52;;;;;;;;;;;11.40;99.90;;;;;;2099458;28;19917;-71
2023/04/11 00:01:52;;;;;;;;;;;11.40;99.90;;;;;;2102894;28;19913;-71
2023/04/11 00:02:58;;;;;;;;;;;11.40;99.90;;;;;;2103941;28;20015;-71
2023/04/11 00:03:59;;;;;;;;;;;11.40;99.90;;;;;;2102259;28;19912;-71
2023/04/11 00:04:59;;;;;;;;;;;11.40;99.90;;;;;;2102581;28;19920;-71
2023/04/11 00:06:00;;;;;;;;;;;11.40;99.90;;;;;;2102866;28;19983;-71
2023/04/11 00:07:00;;;;;;;;;;;11.40;99.90;;;;;;2103112;28;19916;-71
2023/04/11 00:08:01;;;;;;;;;;;11.40;99.90;;;;;;2103661;28;19919;-71
2023/04/11 00:09:01;;;;;;;;;;;11.40;99.90;;;;;;2103482;28;20703;-71
2023/04/11 00:10:02;;;;;;;;;;;11.40;99.90;;;;;;2103260;28;19923;-71
2023/04/11 00:11:02;;;;;;;;;;;11.40;99.90;;;;;;2103284;28;19957;-71
2023/04/11 00:12:03;;;;;;;;;;;11.40;99.90;;;;;;2101951;28;19924;-71
2023/04/11 00:13:06;;;;;;;;;;;11.40;99.90;;;;;;2104140;28;19912;-71
2023/04/11 00:14:07;;;;;;;;;;;11.40;99.90;;;;;;2102295;28;20012;-71
2023/04/11 00:15:08;;;;;;;;;;;11.40;99.90;;;;;;2102531;28;19919;-71
2023/04/11 00:16:09;;;;;;;;;;;11.40;99.90;;;;;;2100889;28;19963;-71
2023/04/11 00:17:11;;;;;;;;;;;11.40;99.90;;;;;;2103200;28;20017;-71
2023/04/11 00:18:11;;;;;;;;;;;11.40;99.90;;;;;;2103336;28;20326;-71
2023/04/11 00:19:12;;;;;;;;;;;11.40;99.90;;;;;;2099976;28;19916;-71
2023/04/11 00:20:13;;;;;;;;;;;11.40;99.90;;;;;;2101325;28;19923;-71
2023/04/11 00:21:14;;;;;;;;;;;11.40;99.90;;;;;;2101639;28;20007;-71
2023/04/11 00:22:16;;;;;;;;;;;11.40;99.90;;;;;;2103498;28;19912;-71
2023/04/11 00:23:17;;;;;;;;;;;11.40;99.90;;;;;;2102687;28;20393;-71
2023/04/11 00:24:17;;;;;;;;;;;11.40;99.90;;;;;;2103150;28;19953;-71
2023/04/11 00:25:18;;;;;;;;;;;11.40;99.90;;;;;;2100109;28;19938;-71
2023/04/11 00:26:20;;;;;;;;;;;11.40;99.90;;;;;;2103003;28;19919;-71
2023/04/11 00:27:20;;;;;;;;;;;11.40;99.90;;;;;;2101789;28;20351;-71
2023/04/11 00:28:21;;;;;;;;;;;11.40;99.90;;;;;;2102728;28;20410;-71
2023/04/11 00:29:21;;;;;;;;;;;11.40;99.90;;;;;;2104061;28;19923;-71
2023/04/11 00:30:22;;;;;;;;;;;11.40;99.90;;;;;;2100653;28;19935;-71
2023/04/11 00:31:22;;;;;;;;;;;11.40;99.90;;;;;;2103874;28;19965;-71
2023/04/11 00:32:23;;;;;;;;;;;11.40;99.90;;;;;;2100771;28;20371;-71
2023/04/11 00:33:24;;;;;;;;;;;11.50;99.90;;;;;;2102193;28;19912;-71
2023/04/11 00:34:24;;;;;;;;;;;11.50;99.90;;;;;;2102691;28;19919;-71
2023/04/11 00:35:25;;;;;;;;;;;11.50;99.90;;;;;;2103465;28;19912;-71
2023/04/11 00:36:25;;;;;;;;;;;11.50;99.90;;;;;;2101805;28;19923;-71
2023/04/11 00:37:26;;;;;;;;;;;11.50;99.90;;;;;;2102405;28;20735;-71
2023/04/11 00:38:26;;;;;;;;;;;11.50;99.90;;;;;;2102488;28;19927;-71
2023/04/11 00:39:29;;;;;;;;;;;11.50;99.90;;;;;;2102900;28;20651;-71
2023/04/11 00:40:30;;;;;;;;;;;11.50;99.90;;;;;;2100135;28;19969;-71
2023/04/11 00:41:30;;;;;;;;;;;11.50;99.90;;;;;;2101764;28;20001;-71
2023/04/11 00:42:31;;;;;;;;;;;11.50;99.90;;;;;;2102912;28;20286;-71
2023/04/11 00:43:32;;;;;;;;;;;11.50;99.90;;;;;;2101906;28;19912;-71
2023/04/11 00:44:33;;;;;;;;;;;11.50;99.90;;;;;;2102594;28;19912;-71
2023/04/11 00:45:33;;;;;;;;;;;11.50;99.90;;;;;;2100737;28;19916;-71
2023/04/11 00:46:34;;;;;;;;;;;11.50;99.90;;;;;;2103755;28;19912;-71
2023/04/11 00:47:35;;;;;;;;;;;11.50;99.90;;;;;;2101919;28;20371;-71
2023/04/11 00:48:36;;;;;;;;;;;11.50;99.90;;;;;;2103005;28;20256;-71
2023/04/11 00:49:37;;;;;;;;;;;11.50;99.90;;;;;;2103444;28;20290;-71
2023/04/11 00:50:39;;;;;;;;;;;11.50;99.90;;;;;;2102278;28;19919;-71
2023/04/11 00:51:40;;;;;;;;;;;11.50;99.90;;;;;;2103638;28;19970;-71
2023/04/11 00:52:41;;;;;;;;;;;11.50;99.90;;;;;;2103691;28;19916;-71
2023/04/11 00:53:44;;;;;;;;;;;11.50;99.90;;;;;;2100764;28;19919;-71
2023/04/11 00:54:45;;;;;;;;;;;11.50;99.90;;;;;;2103690;28;20380;-71
2023/04/11 00:55:45;;;;;;;;;;;11.50;99.90;;;;;;2100738;28;20367;-71
2023/04/11 00:56:46;;;;;;;;;;;11.50;99.90;;;;;;2103073;28;19966;-71
2023/04/11 00:57:46;;;;;;;;;;;11.50;99.90;;;;;;2102698;28;19916;-71
2023/04/11 00:58:47;;;;;;;;;;;11.50;99.90;;;;;;2101086;28;19919;-71
2023/04/11 00:59:47;;;;;;;;;;;11.50;99.90;;;;;;2104930;28;19973;-71
2023/04/11 01:00:48;;;;;;;;;;;11.50;99.90;;;;;;2103889;28;19990;-71
2023/04/11 01:01:49;;;;;;;;;;;11.50;99.90;;;;;;2105105;28;19912;-71
2023/04/11 01:02:49;;;;;;;;;;;11.50;99.90;;;;;;2104085;28;20490;-71
2023/04/11 01:03:50;;;;;;;;;;;11.50;99.90;;;;;;2103522;28;19962;-71
2023/04/11 01:04:52;;;;;;;;;;;11.50;99.90;;;;;;2104344;28;19995;-71
2023/04/11 01:05:52;;;;;;;;;;;11.50;99.90;;;;;;2100358;28;20654;-71
2023/04/11 01:06:54;;;;;;;;;;;11.50;99.90;;;;;;2104300;28;19935;-71
2023/04/11 01:07:55;;;;;;;;;;;11.50;99.90;;;;;;2101087;28;20252;-72
2023/04/11 01:08:55;;;;;;;;;;;11.50;99.90;;;;;;2100292;28;20090;-71
2023/04/11 01:09:56;;;;;;;;;;;11.50;99.90;;;;;;2111330;28;20089;-70
2023/04/11 01:10:57;;;;;;;;;;;11.50;99.90;;;;;;2111936;28;19962;-70
2023/04/11 01:11:58;;;;;;;;;;;11.50;99.90;;;;;;2101674;28;19916;-70
2023/04/11 01:12:59;;;;;;;;;;;11.50;99.90;;;;;;2104807;28;19999;-71
2023/04/11 01:14:00;;;;;;;;;;;11.50;99.90;;;;;;2105120;28;19920;-71
2023/04/11 01:15:01;;;;;;;;;;;11.50;99.90;;;;;;2103544;28;19933;-70
2023/04/11 01:16:02;;;;;;;;;;;11.50;99.90;;;;;;2104352;28;19916;-71
2023/04/11 01:17:03;;;;;;;;;;;11.50;99.90;;;;;;2105123;28;19912;-71
2023/04/11 01:18:04;;;;;;;;;;;11.50;99.90;;;;;;2100806;28;19920;-71
2023/04/11 01:19:05;;;;;;;;;;;11.50;99.90;;;;;;2105064;28;19967;-70
2023/04/11 01:20:07;;;;;;;;;;;11.50;99.90;;;;;;2102711;28;19912;-71
2023/04/11 01:21:08;;;;;;;;;;;11.50;99.90;;;;;;2104205;28;20394;-71
2023/04/11 01:22:10;;;;;;;;;;;11.50;99.90;;;;;;2104260;28;19912;-71
2023/04/11 01:23:12;;;;;;;;;;;11.50;99.90;;;;;;2102821;28;19923;-71
2023/04/11 01:24:12;;;;;;;;;;;11.50;99.90;;;;;;2103929;28;19916;-71
2023/04/11 01:25:14;;;;;;;;;;;11.50;99.90;;;;;;2104154;28;20344;-71
2023/04/11 01:26:15;;;;;;;;;;;11.50;99.90;;;;;;2102243;28;19916;-71
2023/04/11 01:27:15;;;;;;;;;;;11.50;99.90;;;;;;2104450;28;19916;-71
2023/04/11 01:28:19;;;;;;;;;;;11.40;99.90;;;;;;2103031;28;19947;-71
2023/04/11 01:29:19;;;;;;;;;;;11.40;99.90;;;;;;2103215;28;19935;-71
2023/04/11 01:30:20;;;;;;;;;;;11.50;99.90;;;;;;2104613;28;20018;-71
2023/04/11 01:31:20;;;;;;;;;;;11.40;99.90;;;;;;2103654;28;19916;-71
2023/04/11 01:32:21;;;;;;;;;;;11.40;99.90;;;;;;2103292;28;19923;-71
2023/04/11 01:33:21;;;;;;;;;;;11.40;99.90;;;;;;2101311;28;20361;-71
2023/04/11 01:34:24;;;;;;;;;;;11.40;99.90;;;;;;2103712;28;19923;-71
2023/04/11 01:35:24;;;;;;;;;;;11.40;99.90;;;;;;2103993;28;20345;-71
2023/04/11 01:36:25;;;;;;;;;;;11.40;99.90;;;;;;2104411;28;19912;-71
2023/04/11 01:37:26;;;;;;;;;;;11.40;99.90;;;;;;2103962;28;19908;-71
2023/04/11 01:38:26;;;;;;;;;;;11.40;99.90;;;;;;2105582;28;20010;-71
2023/04/11 01:39:27;;;;;;;;;;;11.40;99.90;;;;;;2104053;28;20262;-71
2023/04/11 01:40:28;;;;;;;;;;;11.40;99.90;;;;;;2102741;28;19922;-71
2023/04/11 01:41:29;;;;;;;;;;;11.40;99.90;;;;;;2102832;28;19912;-71
2023/04/11 01:42:31;;;;;;;;;;;11.30;99.90;;;;;;2104584;28;19978;-71
2023/04/11 01:43:31;;;;;;;;;;;11.30;99.90;;;;;;2102615;28;19912;-71
2023/04/11 01:44:32;;;;;;;;;;;11.30;99.90;;;;;;2104087;28;19919;-71
2023/04/11 01:45:33;;;;;;;;;;;11.30;99.90;;;;;;2103195;28;19908;-71
2023/04/11 01:46:34;;;;;;;;;;;11.30;99.90;;;;;;2104802;28;19924;-71
2023/04/11 01:47:35;;;;;;;;;;;11.30;99.90;;;;;;2103912;28;19915;-71
2023/04/11 01:48:38;;;;;;;;;;;11.30;99.90;;;;;;2104739;28;19915;-71
2023/04/11 01:49:39;;;;;;;;;;;11.30;99.90;;;;;;2102855;28;20340;-71
2023/04/11 01:50:40;;;;;;;;;;;11.30;99.90;;;;;;2102385;28;20398;-71
2023/04/11 01:51:41;;;;;;;;;;;11.30;99.90;;;;;;2102412;28;19920;-71
2023/04/11 01:52:41;;;;;;;;;;;11.30;99.90;;;;;;2102174;28;20372;-71
2023/04/11 01:53:41;;;;;;;;;;;11.30;99.90;;;;;;2103514;28;20031;-71
2023/04/11 01:54:42;;;;;;;;;;;11.30;99.90;;;;;;2103737;28;19921;-71
2023/04/11 01:55:42;;;;;;;;;;;11.30;99.90;;;;;;2102618;28;20009;-71
2023/04/11 01:56:43;;;;;;;;;;;11.30;99.90;;;;;;2103168;28;19916;-71
2023/04/11 01:57:43;;;;;;;;;;;11.30;99.90;;;;;;2103897;28;20435;-71
2023/04/11 01:58:44;;;;;;;;;;;11.30;99.90;;;;;;2104302;28;19916;-71
2023/04/11 01:59:44;;;;;;;;;;;11.30;99.90;;;;;;2100566;28;19916;-71
2023/04/11 02:00:45;;;;;;;;;;;11.30;99.90;;;;;;2103155;28;19908;-71
2023/04/11 02:01:45;;;;;;;;;;;11.30;99.90;;;;;;2103058;28;20411;-71
2023/04/11 02:02:46;;;;;;;;;;;11.30;99.90;;;;;;2103516;28;20371;-71
2023/04/11 02:03:46;;;;;;;;;;;11.30;99.90;;;;;;2103030;28;19918;-71
2023/04/11 02:04:47;;;;;;;;;;;11.30;99.90;;;;;;2103601;28;19959;-71
2023/04/11 02:05:47;;;;;;;;;;;11.30;99.90;;;;;;2105242;28;19919;-71
2023/04/11 02:06:47;;;;;;;;;;;11.30;99.90;;;;;;2102234;28;19912;-71
2023/04/11 02:07:48;;;;;;;;;;;11.30;99.90;;;;;;2103169;28;19952;-71
2023/04/11 02:08:48;;;;;;;;;;;11.30;99.90;;;;;;2102356;28;20292;-71
2023/04/11 02:09:49;;;;;;;;;;;11.30;99.90;;;;;;2103942;28;19965;-71
2023/04/11 02:10:49;;;;;;;;;;;11.30;99.90;;;;;;2103993;28;20736;-71
2023/04/11 02:11:50;;;;;;;;;;;11.30;99.90;;;;;;2103049;28;19924;-71
2023/04/11 02:12:50;;;;;;;;;;;11.30;99.90;;;;;;2103047;28;20371;-71
2023/04/11 02:13:51;;;;;;;;;;;11.30;99.90;;;;;;2104262;28;20355;-71
2023/04/11 02:14:52;;;;;;;;;;;11.30;99.90;;;;;;2101467;28;20298;-71
2023/04/11 02:15:52;;;;;;;;;;;11.30;99.90;;;;;;2104663;28;19908;-71
2023/04/11 02:16:53;;;;;;;;;;;11.30;99.90;;;;;;2104392;28;19927;-71
2023/04/11 02:17:54;;;;;;;;;;;11.30;99.90;;;;;;2102262;28;19912;-71
2023/04/11 02:18:55;;;;;;;;;;;11.30;99.90;;;;;;2103117;28;19919;-71
2023/04/11 02:19:56;;;;;;;;;;;11.20;99.90;;;;;;2101934;28;20325;-71
2023/04/11 02:20:57;;;;;;;;;;;11.20;99.90;;;;;;2104603;28;19916;-71
2023/04/11 02:21:57;;;;;;;;;;;11.20;99.90;;;;;;2103712;28;19927;-71
2023/04/11 02:22:59;;;;;;;;;;;11.20;99.90;;;;;;2103505;28;20003;-71
2023/04/11 02:24:00;;;;;;;;;;;11.20;99.90;;;;;;2104674;28;20407;-71
2023/04/11 02:25:00;;;;;;;;;;;11.20;99.90;;;;;;2102741;28;20392;-71
2023/04/11 02:26:01;;;;;;;;;;;11.20;99.90;;;;;;2102238;28;19912;-71
2023/04/11 02:27:01;;;;;;;;;;;11.20;99.90;;;;;;2103633;28;19908;-71
2023/04/11 02:28:02;;;;;;;;;;;11.20;99.90;;;;;;2098857;28;19918;-71
2023/04/11 02:29:02;;;;;;;;;;;11.20;99.90;;;;;;2097912;28;19965;-71
2023/04/11 02:30:04;;;;;;;;;;;11.20;99.90;;;;;;2102690;28;19959;-71
2023/04/11 02:31:05;;;;;;;;;;;11.20;99.90;;;;;;2100181;28;19919;-71
2023/04/11 02:32:05;;;;;;;;;;;11.20;99.90;;;;;;2103727;28;19955;-71
2023/04/11 02:33:06;;;;;;;;;;;11.20;99.90;;;;;;2103843;28;19913;-71
2023/04/11 02:34:06;;;;;;;;;;;11.20;99.90;;;;;;2101392;28;20387;-71
2023/04/11 02:35:07;;;;;;;;;;;11.20;99.90;;;;;;2103507;28;19915;-71
2023/04/11 02:36:07;;;;;;;;;;;11.20;99.90;;;;;;2103548;28;19916;-71
2023/04/11 02:37:08;;;;;;;;;;;11.20;99.90;;;;;;2103411;28;19967;-71
2023/04/11 02:38:08;;;;;;;;;;;11.20;99.90;;;;;;2103496;28;19916;-71
2023/04/11 02:39:09;;;;;;;;;;;11.20;99.90;;;;;;2103044;28;19909;-71
2023/04/11 02:40:09;;;;;;;;;;;11.20;99.90;;;;;;2100610;28;19951;-71
2023/04/11 02:41:10;;;;;;;;;;;11.20;99.90;;;;;;2102977;28;20294;-71
2023/04/11 02:42:11;;;;;;;;;;;11.20;99.90;;;;;;2102820;28;19919;-71
2023/04/11 02:43:11;;;;;;;;;;;11.20;99.90;;;;;;2104136;28;19913;-71
2023/04/11 02:44:12;;;;;;;;;;;11.20;99.90;;;;;;2103033;28;19912;-71
2023/04/11 02:45:12;;;;;;;;;;;11.20;99.90;;;;;;2103434;28;20268;-71
2023/04/11 02:46:13;;;;;;;;;;;11.20;99.90;;;;;;2102830;28;19908;-71
2023/04/11 02:47:13;;;;;;;;;;;11.20;99.90;;;;;;2102853;28;20336;-71
2023/04/11 02:48:13;;;;;;;;;;;11.20;99.90;;;;;;2103247;28;20006;-71
2023/04/11 02:49:14;;;;;;;;;;;11.20;99.90;;;;;;2103047;28;19943;-71
2023/04/11 02:50:14;;;;;;;;;;;11.20;99.90;;;;;;2101135;28;20363;-71
2023/04/11 02:51:15;;;;;;;;;;;11.20;99.90;;;;;;2102841;28;20016;-71
2023/04/11 02:52:16;;;;;;;;;;;11.20;99.90;;;;;;2103614;28;20278;-71
2023/04/11 02:53:17;;;;;;;;;;;11.20;99.90;;;;;;2102551;28;19912;-71
2023/04/11 02:54:18;;;;;;;;;;;11.20;99.90;;;;;;2102669;28;19919;-71
2023/04/11 02:55:18;;;;;;;;;;;11.20;99.90;;;;;;2102216;28;19916;-71
2023/04/11 02:56:19;;;;;;;;;;;11.20;99.90;;;;;;2103077;28;19918;-71
2023/04/11 02:57:19;;;;;;;;;;;11.10;99.90;;;;;;2103055;28;20045;-71
2023/04/11 02:58:20;;;;;;;;;;;11.10;99.90;;;;;;2101244;28;20019;-71
2023/04/11 02:59:20;;;;;;;;;;;11.10;99.90;;;;;;2102019;28;19969;-71
2023/04/11 03:00:21;;;;;;;;;;;11.10;99.90;;;;;;2101674;28;19920;-71
2023/04/11 03:01:23;;;;;;;;;;;11.10;99.90;;;;;;2103867;28;20358;-71
2023/04/11 03:02:24;;;;;;;;;;;11.10;99.90;;;;;;2102272;28;19912;-71
2023/04/11 03:03:25;;;;;;;;;;;11.10;99.90;;;;;;2102805;28;20004;-71
2023/04/11 03:04:26;;;;;;;;;;;11.10;99.90;;;;;;2103666;28;19908;-71
2023/04/11 03:05:26;;;;;;;;;;;11.10;99.90;;;;;;2103353;28;19955;-71
2023/04/11 03:06:27;;;;;;;;;;;11.00;99.90;;;;;;2103341;28;19923;-71
2023/04/11 03:07:27;;;;;;;;;;;11.00;99.90;;;;;;2104547;28;19914;-71
2023/04/11 03:08:27;;;;;;;;;;;11.00;99.90;;;;;;2102873;28;20017;-71
2023/04/11 03:09:28;;;;;;;;;;;11.00;99.90;;;;;;2103611;28;19913;-71
2023/04/11 03:10:28;;;;;;;;;;;11.00;99.90;;;;;;2101119;28;19917;-71
2023/04/11 03:11:29;;;;;;;;;;;11.00;99.90;;;;;;2102338;28;19912;-71
2023/04/11 03:12:29;;;;;;;;;;;11.00;99.90;;;;;;2101279;28;20395;-71
2023/04/11 03:13:30;;;;;;;;;;;11.00;99.90;;;;;;2102963;28;19995;-71
2023/04/11 03:14:30;;;;;;;;;;;11.00;99.90;;;;;;2103842;28;20393;-71
2023/04/11 03:15:31;;;;;;;;;;;11.00;99.90;;;;;;2102146;28;20829;-71
2023/04/11 03:16:31;;;;;;;;;;;11.00;99.90;;;;;;2105986;28;19908;-71
2023/04/11 03:17:32;;;;;;;;;;;11.00;99.90;;;;;;2103517;28;19973;-71
2023/04/11 03:18:33;;;;;;;;;;;10.90;99.90;;;;;;2103724;28;20014;-71
2023/04/11 03:19:33;;;;;;;;;;;10.90;99.90;;;;;;2099667;28;19916;-71
2023/04/11 03:20:34;;;;;;;;;;;10.90;99.90;;;;;;2099913;28;20894;-71
2023/04/11 03:21:34;;;;;;;;;;;10.90;99.90;;;;;;2101779;28;19916;-71
2023/04/11 03:22:35;;;;;;;;;;;10.90;99.90;;;;;;2103278;28;20356;-71
2023/04/11 03:23:36;;;;;;;;;;;10.90;99.90;;;;;;2103118;28;19916;-71
2023/04/11 03:24:38;;;;;;;;;;;10.90;99.90;;;;;;2103335;28;19912;-71
2023/04/11 03:25:39;;;;;;;;;;;10.90;99.90;;;;;;2103027;28;19923;-71
2023/04/11 03:26:39;;;;;;;;;;;10.90;99.90;;;;;;2100260;28;21240;-71
2023/04/11 03:27:40;;;;;;;;;;;10.90;99.90;;;;;;2102585;28;19920;-71
2023/04/11 03:28:40;;;;;;;;;;;10.90;99.90;;;;;;2101449;28;19965;-71
2023/04/11 03:29:41;;;;;;;;;;;10.90;99.90;;;;;;2101408;28;19912;-71
2023/04/11 03:30:42;;;;;;;;;;;10.90;99.90;;;;;;2102995;28;20583;-71
2023/04/11 03:31:42;;;;;;;;;;;10.90;99.90;;;;;;2103260;28;20287;-71
2023/04/11 03:32:43;;;;;;;;;;;10.90;99.90;;;;;;2103458;28;19966;-71
2023/04/11 03:33:45;;;;;;;;;;;10.90;99.90;;;;;;2102577;28;19915;-71
2023/04/11 03:34:45;;;;;;;;;;;10.90;99.90;;;;;;2102802;28;19912;-71
2023/04/11 03:35:45;;;;;;;;;;;10.90;99.90;;;;;;2101787;28;19999;-71
2023/04/11 03:36:46;;;;;;;;;;;10.90;99.90;;;;;;2101333;28;20326;-71
2023/04/11 03:37:46;;;;;;;;;;;10.90;99.90;;;;;;2101915;28;19912;-71
2023/04/11 03:38:47;;;;;;;;;;;10.90;99.90;;;;;;2103563;28;19923;-71
2023/04/11 03:39:47;;;;;;;;;;;10.80;99.90;;;;;;2108668;28;19912;-71
2023/04/11 03:40:48;;;;;;;;;;;10.90;99.90;;;;;;2110550;28;19915;-71
2023/04/11 03:41:48;;;;;;;;;;;10.90;99.90;;;;;;2101557;28;19960;-71
2023/04/11 03:42:49;;;;;;;;;;;10.90;99.90;;;;;;2101606;28;19912;-71
2023/04/11 03:43:49;;;;;;;;;;;10.90;99.90;;;;;;2103672;28;20340;-71
2023/04/11 03:44:50;;;;;;;;;;;10.90;99.90;;;;;;2103659;28;20384;-71
2023/04/11 03:45:50;;;;;;;;;;;10.90;99.90;;;;;;2102200;28;19959;-71
2023/04/11 03:46:51;;;;;;;;;;;10.80;99.90;;;;;;2103238;28;19912;-71
2023/04/11 03:47:51;;;;;;;;;;;10.90;99.90;;;;;;2101140;28;19966;-71
2023/04/11 03:48:52;;;;;;;;;;;10.90;99.90;;;;;;2103691;28;19970;-71
2023/04/11 03:49:52;;;;;;;;;;;10.80;99.90;;;;;;2102861;28;19916;-71
2023/04/11 03:50:53;;;;;;;;;;;10.90;99.90;;;;;;2100350;28;19912;-71
2023/04/11 03:51:53;;;;;;;;;;;10.90;99.90;;;;;;2102502;28;20006;-71
2023/04/11 03:52:54;;;;;;;;;;;10.80;99.90;;;;;;2102096;28;20339;-71
2023/04/11 03:53:55;;;;;;;;;;;10.80;99.90;;;;;;2101390;28;19916;-71
2023/04/11 03:54:55;;;;;;;;;;;10.80;99.90;;;;;;2101299;28;19920;-71
2023/04/11 03:55:55;;;;;;;;;;;10.80;99.90;;;;;;2101611;28;19916;-71
2023/04/11 03:56:56;;;;;;;;;;;10.80;99.90;;;;;;2103167;28;19920;-71
2023/04/11 03:57:57;;;;;;;;;;;10.80;99.90;;;;;;2103636;28;19912;-71
2023/04/11 03:58:57;;;;;;;;;;;10.80;99.90;;;;;;2101727;28;19915;-71
2023/04/11 03:59:58;;;;;;;;;;;10.80;99.90;;;;;;2102036;28;19919;-71
2023/04/11 04:00:58;;;;;;;;;;;10.80;99.90;;;;;;2101982;28;19995;-71
2023/04/11 04:01:59;;;;;;;;;;;10.80;99.90;;;;;;2102269;28;19915;-71
2023/04/11 04:02:59;;;;;;;;;;;10.80;99.90;;;;;;2102026;28;19916;-71
2023/04/11 04:04:00;;;;;;;;;;;10.80;99.90;;;;;;2103930;28;19928;-71
2023/04/11 04:05:00;;;;;;;;;;;10.80;99.90;;;;;;2095687;28;20783;-71
2023/04/11 04:06:01;;;;;;;;;;;10.80;99.90;;;;;;2101281;28;19920;-71
2023/04/11 04:07:03;;;;;;;;;;;10.80;99.90;;;;;;2102458;28;20007;-71
2023/04/11 04:08:03;;;;;;;;;;;10.80;99.90;;;;;;2101761;28;19919;-71
2023/04/11 04:09:04;;;;;;;;;;;10.80;99.90;;;;;;2103434;28;19908;-71
2023/04/11 04:10:05;;;;;;;;;;;10.80;99.90;;;;;;2099416;28;19943;-71
2023/04/11 04:11:05;;;;;;;;;;;10.80;99.90;;;;;;2102509;28;19916;-71
2023/04/11 04:12:06;;;;;;;;;;;10.80;99.90;;;;;;2101333;28;19924;-71
2023/04/11 04:13:06;;;;;;;;;;;10.80;99.90;;;;;;2102689;28;19917;-71
2023/04/11 04:14:07;;;;;;;;;;;10.80;99.90;;;;;;2102783;28;19995;-71
2023/04/11 04:15:08;;;;;;;;;;;10.80;99.90;;;;;;2103056;28;19908;-71
2023/04/11 04:16:08;;;;;;;;;;;10.80;99.90;;;;;;2102016;28;20435;-71
2023/04/11 04:17:10;;;;;;;;;;;10.80;99.90;;;;;;2103472;28;20349;-71
2023/04/11 04:18:10;;;;;;;;;;;10.80;99.90;;;;;;2101861;28;19916;-71
2023/04/11 04:19:11;;;;;;;;;;;10.80;99.90;;;;;;2103049;28;19938;-71
2023/04/11 04:20:11;;;;;;;;;;;10.80;99.90;;;;;;2099531;28;19951;-71
2023/04/11 04:21:12;;;;;;;;;;;10.80;99.90;;;;;;2102607;28;19912;-71
2023/04/11 04:22:16;;;;;;;;;;;10.80;99.90;;;;;;2101295;28;19951;-71
2023/04/11 04:23:22;;;;;;;;;;;10.80;99.90;;;;;;2101030;28;20593;-71
2023/04/11 04:24:24;;;;;;;;;;;10.80;99.90;;;;;;2100606;28;20402;-71
2023/04/11 04:25:25;;;;;;;;;;;10.80;99.90;;;;;;2098997;28;20039;-71
2023/04/11 04:26:28;;;;;;;;;;;10.80;99.90;;;;;;2102858;28;19923;-71
2023/04/11 04:27:29;;;;;;;;;;;10.80;99.90;;;;;;2102637;28;19961;-71
2023/04/11 04:28:29;;;;;;;;;;;10.80;99.90;;;;;;2101039;28;20020;-71
2023/04/11 04:29:36;;;;;;;;;;;10.80;99.90;;;;;;2102198;28;19920;-71
2023/04/11 04:30:37;;;;;;;;;;;10.80;99.90;;;;;;2102901;28;19912;-71
2023/04/11 04:31:37;;;;;;;;;;;10.80;99.90;;;;;;2103489;28;20390;-71
2023/04/11 04:32:39;;;;;;;;;;;10.80;99.90;;;;;;2104039;28;20082;-71
2023/04/11 04:33:41;;;;;;;;;;;10.80;99.90;;;;;;2102906;28;20431;-71
2023/04/11 04:34:45;;;;;;;;;;;10.80;99.90;;;;;;2103210;28;20066;-71
2023/04/11 04:35:46;;;;;;;;;;;10.80;99.90;;;;;;2104158;28;19927;-71
2023/04/11 04:36:48;;;;;;;;;;;10.70;99.90;;;;;;2101091;28;20544;-71
2023/04/11 04:37:48;;;;;;;;;;;10.70;99.90;;;;;;2102952;28;19919;-71
2023/04/11 04:38:49;;;;;;;;;;;10.70;99.90;;;;;;2103722;28;19923;-71
2023/04/11 04:39:52;;;;;;;;;;;10.80;99.90;;;;;;2102576;28;19927;-71
2023/04/11 04:40:56;;;;;;;;;;;10.70;99.90;;;;;;2103584;28;19918;-71
2023/04/11 04:42:00;;;;;;;;;;;10.80;99.90;;;;;;2103171;28;19916;-71
2023/04/11 04:43:00;;;;;;;;;;;10.70;99.90;;;;;;2099912;28;20014;-71
2023/04/11 04:44:03;;;;;;;;;;;10.70;99.90;;;;;;2103758;28;19916;-71
2023/04/11 04:45:03;;;;;;;;;;;10.70;99.90;;;;;;2103889;28;19919;-71
2023/04/11 04:46:04;;;;;;;;;;;10.70;99.90;;;;;;2103653;28;19974;-71
2023/04/11 04:47:05;;;;;;;;;;;10.70;99.90;;;;;;2103855;28;19987;-71
2023/04/11 04:48:05;;;;;;;;;;;10.70;99.90;;;;;;2103324;28;19942;-71
2023/04/11 04:49:08;;;;;;;;;;;10.70;99.90;;;;;;2103743;28;19992;-71
2023/04/11 04:50:09;;;;;;;;;;;10.70;99.90;;;;;;2101370;28;20387;-71
2023/04/11 04:51:10;;;;;;;;;;;10.70;99.90;;;;;;2103565;28;20268;-71
2023/04/11 04:52:14;;;;;;;;;;;10.70;99.90;;;;;;2105641;28;19916;-71
2023/04/11 04:53:14;;;;;;;;;;;10.70;99.90;;;;;;2101915;28;19931;-71
2023/04/11 04:54:18;;;;;;;;;;;10.70;99.90;;;;;;2104208;28;19927;-71
2023/04/11 04:55:18;;;;;;;;;;;10.70;99.90;;;;;;2103586;28;19969;-71
2023/04/11 04:56:19;;;;;;;;;;;10.70;99.90;;;;;;2105249;28;20049;-71
2023/04/11 04:57:20;;;;;;;;;;;10.70;99.90;;;;;;2105620;28;19909;-71
2023/04/11 04:58:20;;;;;;;;;;;10.60;99.90;;;;;;2103313;28;19977;-71
2023/04/11 04:59:21;;;;;;;;;;;10.60;99.90;;;;;;2103818;28;19960;-71
2023/04/11 05:00:21;;;;;;;;;;;10.60;99.90;;;;;;2102172;28;20367;-71
2023/04/11 05:01:25;;;;;;;;;;;10.60;99.90;;;;;;2100070;28;19928;-71
2023/04/11 05:02:26;;;;;;;;;;;10.60;99.90;;;;;;2101400;28;20044;-71
2023/04/11 05:03:26;;;;;;;;;;;10.60;99.90;;;;;;2103858;28;20151;-71
2023/04/11 05:04:28;;;;;;;;;;;10.60;99.90;;;;;;2102109;28;19920;-71
2023/04/11 05:05:28;;;;;;;;;;;10.60;99.90;;;;;;2103741;28;20010;-71
2023/04/11 05:06:30;;;;;;;;;;;10.60;99.90;;;;;;2103098;28;19915;-71
2023/04/11 05:07:30;;;;;;;;;;;10.60;99.90;;;;;;2102105;28;19912;-71
2023/04/11 05:08:31;;;;;;;;;;;10.60;99.90;;;;;;2105233;28;19924;-71
2023/04/11 05:09:31;;;;;;;;;;;10.60;99.90;;;;;;2101855;28;19923;-71
2023/04/11 05:10:32;;;;;;;;;;;10.60;99.90;;;;;;2104884;28;19974;-71
2023/04/11 05:11:32;;;;;;;;;;;10.60;99.90;;;;;;2102490;28;20651;-71
2023/04/11 05:12:33;;;;;;;;;;;10.60;99.90;;;;;;2100482;28;19926;-71
2023/04/11 05:13:33;;;;;;;;;;;10.60;99.90;;;;;;2102339;28;19971;-71
2023/04/11 05:14:34;;;;;;;;;;;10.60;99.90;;;;;;2101369;28;19919;-71
2023/04/11 05:15:34;;;;;;;;;;;10.60;99.90;;;;;;2103785;28;20283;-71
2023/04/11 05:16:36;;;;;;;;;;;10.60;99.90;;;;;;2103525;28;19989;-71
2023/04/11 05:17:37;;;;;;;;;;;10.60;99.90;;;;;;2102935;28;19987;-71
2023/04/11 05:18:37;;;;;;;;;;;10.60;99.90;;;;;;2106355;28;19957;-71
2023/04/11 05:19:38;;;;;;;;;;;10.60;99.90;;;;;;2104134;28;20269;-71
2023/04/11 05:20:38;;;;;;;;;;;10.60;99.90;;;;;;2102380;28;19951;-71
2023/04/11 05:21:39;;;;;;;;;;;10.60;99.90;;;;;;2107655;28;20367;-71
2023/04/11 05:22:41;;;;;;;;;;;10.60;99.90;;;;;;2105492;28;19916;-71
2023/04/11 05:23:41;;;;;;;;;;;10.60;99.90;;;;;;2104785;28;19908;-71
2023/04/11 05:24:42;;;;;;;;;;;10.50;99.90;;;;;;2103783;28;20664;-71
2023/04/11 05:25:42;;;;;;;;;;;10.50;99.90;;;;;;2103860;28;19920;-71
2023/04/11 05:26:43;;;;;;;;;;;10.50;99.90;;;;;;2103064;28;19908;-71
2023/04/11 05:27:43;;;;;;;;;;;10.50;99.90;;;;;;2103914;28;20299;-71
2023/04/11 05:28:43;;;;;;;;;;;10.50;99.90;;;;;;2104846;28;20691;-71
2023/04/11 05:29:44;;;;;;;;;;;10.40;99.90;;;;;;2102483;28;19961;-71
2023/04/11 05:30:45;;;;;;;;;;;10.40;99.90;;;;;;2104156;28;20437;-71
2023/04/11 05:31:45;;;;;;;;;;;10.40;99.90;;;;;;2104467;28;19916;-71
2023/04/11 05:32:46;;;;;;;;;;;10.40;99.90;;;;;;2099615;28;19916;-71
2023/04/11 05:33:46;;;;;;;;;;;10.30;99.90;;;;;;2104528;28;19909;-71
2023/04/11 05:34:51;;;;;;;;;;;10.40;99.90;;;;;;2101421;28;19933;-71
2023/04/11 05:35:52;;;;;;;;;;;10.40;99.90;;;;;;2104045;28;19912;-71
2023/04/11 05:36:52;;;;;;;;;;;10.40;99.90;;;;;;2105254;28;19913;-71
2023/04/11 05:37:53;;;;;;;;;;;10.40;99.90;;;;;;2105044;28;19912;-71
2023/04/11 05:38:53;;;;;;;;;;;10.40;99.90;;;;;;2104910;28;20733;-71
2023/04/11 05:39:55;;;;;;;;;;;10.40;99.90;;;;;;2104394;28;19969;-71
2023/04/11 05:40:55;;;;;;;;;;;10.40;99.90;;;;;;2104952;28;19918;-71
2023/04/11 05:41:56;;;;;;;;;;;10.40;99.90;;;;;;2104172;28;19916;-71
2023/04/11 05:42:56;;;;;;;;;;;10.40;99.90;;;;;;2104226;28;19970;-71
2023/04/11 05:43:57;;;;;;;;;;;10.40;99.90;;;;;;2103364;28;20484;-71
2023/04/11 05:44:57;;;;;;;;;;;10.40;99.90;;;;;;2103679;28;19916;-71
2023/04/11 05:45:58;;;;;;;;;;;10.30;99.90;;;;;;2104319;28;20371;-71
2023/04/11 05:46:58;;;;;;;;;;;10.40;99.90;;;;;;2102449;28;19920;-71
2023/04/11 05:47:59;;;;;;;;;;;10.40;99.90;;;;;;2104824;28;19908;-71
2023/04/11 05:48:59;;;;;;;;;;;10.30;99.90;;;;;;2104258;28;19915;-71
2023/04/11 05:50:00;;;;;;;;;;;10.30;99.90;;;;;;2101975;28;19916;-71
2023/04/11 05:51:00;;;;;;;;;;;10.30;99.90;;;;;;2104540;28;19926;-71
2023/04/11 05:52:01;;;;;;;;;;;10.40;99.90;;;;;;2104194;28;19912;-71
2023/04/11 05:53:02;;;;;;;;;;;10.40;99.90;;;;;;2104496;28;19912;-71
2023/04/11 05:54:02;;;;;;;;;;;10.40;99.90;;;;;;2103480;28;19912;-71